createdAt,value
2019-04-14T00:00:36.873Z,41.00
2019-04-14T00:03:11.094Z,37.63
2019-04-14T00:05:41.246Z,37.83
2019-04-14T00:08:11.096Z,43.90
2019-04-14T00:10:40.557Z,43.03
2019-04-14T00:13:11.007Z,43.50
2019-04-14T00:15:45.097Z,42.00
2019-04-14T00:18:11.883Z,41.33
2019-04-14T00:20:42.532Z,38.57
2019-04-14T00:23:13.064Z,43.47
2019-04-14T00:25:43.393Z,43.10
2019-04-14T00:28:14.095Z,45.87
2019-04-14T00:30:44.774Z,46.63
2019-04-14T00:33:19.216Z,44.90
2019-04-14T00:35:51.386Z,43.57
2019-04-14T00:38:23.871Z,44.33
2019-04-14T00:40:56.063Z,49.57
2019-04-14T00:43:43.928Z,41.40
2019-04-14T00:46:18.999Z,44.20
2019-04-14T00:48:49.673Z,41.90
2019-04-14T00:51:19.926Z,44.23
2019-04-14T00:53:49.588Z,43.00
2019-04-14T00:56:19.472Z,47.57
2019-04-14T00:58:49.708Z,46.13
2019-04-14T01:01:19.731Z,47.27
2019-04-14T01:03:50.294Z,45.10
2019-04-14T01:06:20.798Z,44.47
2019-04-14T01:08:51.138Z,43.73
2019-04-14T01:11:20.656Z,45.83
2019-04-14T01:13:50.839Z,44.20
2019-04-14T01:16:23.300Z,45.13
2019-04-14T01:18:51.601Z,46.87
2019-04-14T01:21:21.789Z,41.63
2019-04-14T01:23:52.275Z,43.73
2019-04-14T01:26:22.538Z,46.13
2019-04-14T01:28:52.647Z,50.27
2019-04-14T01:31:23.076Z,44.13
2019-04-14T01:33:53.376Z,44.30
2019-04-14T01:36:23.509Z,45.10
2019-04-14T01:38:53.615Z,46.07
2019-04-14T01:41:23.915Z,43.43
2019-04-14T01:43:53.897Z,46.63
2019-04-14T01:46:28.047Z,47.73
2019-04-14T01:48:54.465Z,48.13
2019-04-14T01:51:31.342Z,47.33
2019-04-14T01:54:06.053Z,47.20
2019-04-14T01:56:53.653Z,50.00
2019-04-14T01:59:24.149Z,45.80
2019-04-14T02:01:56.438Z,46.33
2019-04-14T02:04:26.723Z,43.23
2019-04-14T02:06:57.365Z,44.83
2019-04-14T02:09:27.227Z,52.10
2019-04-14T02:11:57.439Z,50.43
2019-04-14T02:14:27.786Z,44.97
2019-04-14T02:17:00.491Z,50.37
2019-04-14T02:19:28.521Z,48.57
2019-04-14T02:21:58.477Z,47.43
2019-04-14T02:24:28.866Z,51.17
2019-04-14T02:26:59.123Z,48.67
2019-04-14T02:29:29.748Z,48.00
2019-04-14T02:32:28.005Z,47.07
2019-04-14T02:34:57.494Z,50.90
2019-04-14T02:37:26.761Z,50.53
2019-04-14T02:45:00.688Z,46.37
2019-04-14T02:52:35.545Z,51.63
2019-04-14T02:55:05.512Z,47.87
2019-04-14T03:00:15.454Z,51.07
2019-04-14T03:02:38.879Z,49.37
2019-04-14T03:05:13.329Z,50.17
2019-04-14T03:10:10.535Z,52.73
2019-04-14T03:15:17.020Z,52.10
2019-04-14T03:18:20.429Z,50.17
2019-04-14T03:20:47.801Z,48.67
2019-04-14T03:23:46.765Z,48.70
2019-04-14T03:26:15.359Z,52.63
2019-04-14T03:29:10.731Z,49.93
2019-04-14T03:34:39.190Z,51.63
2019-04-14T03:43:55.854Z,45.47
2019-04-14T03:51:39.578Z,49.23
2019-04-14T03:54:01.957Z,50.57
2019-04-14T03:56:17.665Z,51.13
2019-04-14T03:58:46.536Z,49.50
2019-04-14T04:01:17.182Z,45.83
2019-04-14T04:03:47.778Z,50.53
2019-04-14T04:06:18.140Z,48.43
2019-04-14T04:08:48.508Z,46.77
2019-04-14T04:11:19.271Z,49.27
2019-04-14T04:13:49.858Z,51.07
2019-04-14T04:16:22.266Z,48.00
2019-04-14T04:19:01.896Z,45.77
2019-04-14T04:21:24.814Z,47.60
2019-04-14T04:24:04.728Z,49.57
2019-04-14T04:26:38.654Z,49.67
2019-04-14T04:29:12.199Z,47.73
2019-04-14T04:31:52.600Z,45.57
2019-04-14T04:34:35.967Z,48.50
2019-04-14T04:37:17.111Z,47.37
2019-04-14T04:39:49.533Z,44.20
2019-04-14T04:42:19.837Z,42.40
2019-04-14T04:44:49.383Z,52.07
2019-04-14T04:47:18.853Z,46.53
2019-04-14T04:49:49.034Z,45.40
2019-04-14T04:52:19.102Z,49.17
2019-04-14T04:54:51.812Z,47.53
2019-04-14T04:57:22.096Z,47.10
2019-04-14T04:59:51.757Z,42.37
2019-04-14T05:02:22.083Z,44.50
2019-04-14T05:04:52.584Z,43.47
2019-04-14T05:07:23.083Z,44.53
2019-04-14T05:10:00.267Z,44.73
2019-04-14T05:12:34.795Z,42.47
2019-04-14T05:15:07.305Z,42.43
2019-04-14T05:17:47.598Z,45.20
2019-04-14T05:20:18.037Z,44.50
2019-04-14T05:22:48.565Z,42.53
2019-04-14T05:25:19.012Z,47.73
2019-04-14T05:27:49.447Z,46.23
2019-04-14T05:30:19.695Z,43.40
2019-04-14T05:32:50.167Z,42.10
2019-04-14T05:35:20.573Z,38.47
2019-04-14T05:37:50.753Z,38.27
2019-04-14T05:40:21.053Z,37.70
2019-04-14T05:42:51.611Z,44.77
2019-04-14T05:45:22.018Z,43.47
2019-04-14T05:47:52.276Z,38.90
2019-04-14T05:50:22.687Z,38.80
2019-04-14T05:52:52.133Z,37.37
2019-04-14T05:55:22.015Z,37.20
2019-04-14T05:57:52.509Z,36.57
2019-04-14T06:00:23.400Z,39.73
2019-04-14T06:02:52.993Z,37.67
2019-04-14T06:05:23.271Z,39.23
2019-04-14T06:07:55.383Z,36.97
2019-04-14T06:10:23.863Z,38.40
2019-04-14T06:12:53.250Z,36.33
2019-04-14T06:15:22.652Z,33.67
2019-04-14T06:17:52.061Z,34.30
2019-04-14T06:20:21.452Z,35.17
2019-04-14T06:22:50.840Z,39.83
2019-04-14T06:25:20.230Z,39.63
2019-04-14T06:27:49.652Z,42.67
2019-04-14T06:30:36.905Z,35.13
2019-04-14T06:33:08.005Z,35.73
2019-04-14T06:35:39.049Z,36.30
2019-04-14T06:38:10.097Z,36.77
2019-04-14T06:40:41.150Z,35.87
2019-04-14T06:43:11.768Z,37.83
2019-04-14T06:45:41.296Z,32.83
2019-04-14T06:48:10.718Z,36.30
2019-04-14T06:50:40.108Z,33.07
2019-04-14T06:53:09.486Z,36.70
2019-04-14T06:55:38.918Z,33.70
2019-04-14T06:58:08.303Z,30.10
2019-04-14T07:00:37.694Z,29.10
2019-04-14T07:03:07.104Z,28.03
2019-04-14T07:05:36.520Z,25.83
2019-04-14T07:08:05.908Z,23.10
2019-04-14T07:10:35.306Z,26.67
2019-04-14T07:13:04.732Z,26.13
2019-04-14T07:15:34.111Z,17.83
2019-04-14T07:18:03.760Z,20.07
2019-04-14T07:20:33.223Z,29.00
2019-04-14T07:23:02.730Z,22.97
2019-04-14T07:25:32.316Z,24.43
2019-04-14T07:28:01.803Z,25.67
2019-04-14T07:30:33.588Z,19.37
2019-04-14T07:33:11.027Z,24.70
2019-04-14T07:35:56.901Z,23.93
2019-04-14T07:38:27.914Z,11.67
2019-04-14T07:41:04.763Z,21.37
2019-04-14T07:43:52.138Z,28.40
2019-04-14T07:46:37.942Z,26.87
2019-04-14T07:49:27.201Z,24.27
2019-04-14T07:52:16.362Z,16.63
2019-04-14T07:54:49.917Z,25.73
2019-04-14T07:57:20.965Z,15.60
2019-04-14T08:00:08.197Z,17.33
2019-04-14T08:02:42.223Z,14.40
2019-04-14T08:05:19.259Z,23.67
2019-04-14T08:07:49.453Z,21.83
2019-04-14T08:10:18.937Z,21.80
2019-04-14T08:12:48.365Z,11.60
2019-04-14T08:15:17.991Z,26.17
2019-04-14T08:17:47.397Z,22.67
2019-04-14T08:20:26.904Z,20.80
2019-04-14T08:22:48.010Z,20.53
2019-04-14T08:25:17.495Z,15.17
2019-04-14T08:27:46.906Z,22.90
2019-04-14T08:30:16.381Z,19.93
2019-04-14T08:32:45.811Z,23.57
2019-04-14T08:35:15.399Z,7.93
2019-04-14T08:37:44.901Z,16.03
2019-04-14T08:40:14.714Z,24.57
2019-04-14T08:43:04.386Z,26.27
2019-04-14T08:45:44.520Z,27.07
2019-04-14T08:48:31.594Z,21.90
2019-04-14T08:51:05.483Z,15.23
2019-04-14T08:53:36.588Z,20.27
2019-04-14T08:56:13.189Z,21.23
2019-04-14T08:58:47.231Z,20.33
2019-04-14T09:01:23.818Z,15.80
2019-04-14T09:03:57.844Z,22.03
2019-04-14T09:06:37.658Z,25.67
2019-04-14T09:09:09.416Z,16.13
2019-04-14T09:11:49.162Z,16.23
2019-04-14T09:14:18.693Z,14.90
2019-04-14T09:16:48.195Z,21.40
2019-04-14T09:19:17.607Z,16.03
2019-04-14T09:21:47.383Z,17.60
2019-04-14T09:24:16.960Z,15.70
2019-04-14T09:26:46.771Z,20.57
2019-04-14T09:29:16.163Z,17.43
2019-04-14T09:31:45.669Z,19.47
2019-04-14T09:34:15.419Z,22.00
2019-04-14T09:36:44.824Z,10.63
2019-04-14T09:39:14.374Z,14.43
2019-04-14T09:41:43.804Z,24.17
2019-04-14T09:44:14.140Z,23.67
2019-04-14T09:46:43.550Z,20.00
2019-04-14T09:49:12.972Z,12.87
2019-04-14T09:51:42.462Z,9.10
2019-04-14T09:54:11.954Z,14.67
2019-04-14T09:56:41.557Z,16.20
2019-04-14T09:59:10.978Z,22.50
2019-04-14T10:01:40.661Z,13.97
2019-04-14T10:04:10.157Z,16.30
2019-04-14T10:06:41.014Z,18.67
2019-04-14T10:09:10.717Z,18.87
2019-04-14T10:11:48.458Z,16.73
2019-04-14T10:14:12.024Z,13.20
2019-04-14T10:16:41.660Z,11.97
2019-04-14T10:19:11.227Z,20.47
2019-04-14T10:21:41.177Z,16.40
2019-04-14T10:24:10.595Z,15.87
2019-04-14T10:26:40.008Z,21.80
2019-04-14T10:29:09.454Z,19.33
2019-04-14T10:31:38.951Z,13.23
2019-04-14T10:34:09.912Z,13.13
2019-04-14T10:36:39.507Z,21.37
2019-04-14T10:39:08.948Z,19.20
2019-04-14T10:41:38.469Z,14.60
2019-04-14T10:44:08.116Z,17.10
2019-04-14T10:46:37.614Z,11.77
2019-04-14T10:49:07.934Z,22.47
2019-04-14T10:51:38.167Z,19.77
2019-04-14T10:54:07.572Z,18.03
2019-04-14T10:56:37.096Z,18.70
2019-04-14T10:59:06.638Z,13.73
2019-04-14T11:01:36.300Z,18.80
2019-04-14T11:04:08.031Z,18.60
2019-04-14T11:06:38.775Z,17.83
2019-04-14T11:09:10.056Z,19.50
2019-04-14T11:11:39.595Z,15.67
2019-04-14T11:14:09.107Z,19.80
2019-04-14T11:16:38.584Z,20.37
2019-04-14T11:19:09.607Z,18.33
2019-04-14T11:21:42.706Z,12.13
2019-04-14T11:24:10.367Z,18.30
2019-04-14T11:26:39.873Z,18.27
2019-04-14T11:29:09.408Z,13.60
2019-04-14T11:31:46.552Z,19.77
2019-04-14T11:34:17.652Z,19.33
2019-04-14T11:37:07.252Z,20.83
2019-04-14T11:39:36.761Z,20.73
2019-04-14T11:42:06.234Z,18.37
2019-04-14T11:44:35.686Z,18.37
2019-04-14T11:47:05.676Z,20.60
2019-04-14T11:49:36.730Z,17.53
2019-04-14T11:52:06.276Z,19.97
2019-04-14T11:54:35.732Z,19.67
2019-04-14T11:57:05.418Z,21.37
2019-04-14T11:59:39.480Z,19.70
2019-04-14T12:02:11.583Z,19.90
2019-04-14T12:04:42.707Z,19.23
2019-04-14T12:07:13.902Z,21.57
2019-04-14T12:09:44.949Z,20.80
2019-04-14T12:12:14.461Z,21.17
2019-04-14T12:14:44.012Z,20.27
2019-04-14T12:17:13.392Z,19.33
2019-04-14T12:19:42.855Z,12.90
2019-04-14T12:22:12.297Z,21.17
2019-04-14T12:24:41.702Z,19.97
2019-04-14T12:27:11.191Z,17.30
2019-04-14T12:29:41.199Z,15.80
2019-04-14T12:32:12.769Z,18.23
2019-04-14T12:34:42.602Z,18.23
2019-04-14T12:37:12.079Z,11.33
2019-04-14T12:39:41.677Z,18.90
2019-04-14T12:42:27.598Z,23.60
2019-04-14T12:45:04.423Z,19.77
2019-04-14T12:47:40.086Z,16.50
2019-04-14T12:50:09.727Z,19.27
2019-04-14T12:52:39.159Z,18.87
2019-04-14T12:55:09.018Z,19.57
2019-04-14T12:57:48.899Z,6.93
2019-04-14T13:00:20.574Z,10.43
2019-04-14T13:02:51.695Z,13.23
2019-04-14T13:05:21.097Z,19.07
2019-04-14T13:07:51.002Z,20.97
2019-04-14T13:10:20.511Z,15.10
2019-04-14T13:12:50.018Z,12.83
2019-04-14T13:15:19.549Z,19.77
2019-04-14T13:17:49.205Z,16.77
2019-04-14T13:20:18.812Z,19.43
2019-04-14T13:22:48.229Z,14.07
2019-04-14T13:25:17.726Z,11.03
2019-04-14T13:27:47.734Z,21.40
2019-04-14T13:30:18.911Z,15.63
2019-04-14T13:32:48.391Z,16.47
2019-04-14T13:35:17.975Z,20.13
2019-04-14T13:37:47.402Z,12.47
2019-04-14T13:40:17.117Z,20.13
2019-04-14T13:42:46.703Z,15.93
2019-04-14T13:45:16.251Z,17.40
2019-04-14T13:47:45.759Z,21.30
2019-04-14T13:50:15.478Z,8.23
2019-04-14T13:52:47.191Z,17.70
2019-04-14T13:55:16.444Z,19.83
2019-04-14T13:57:46.086Z,7.60
2019-04-14T14:00:16.441Z,18.70
2019-04-14T14:02:46.023Z,19.30
2019-04-14T14:05:17.735Z,20.63
2019-04-14T14:07:47.334Z,20.70
2019-04-14T14:10:17.216Z,16.00
2019-04-14T14:12:48.442Z,16.00
2019-04-14T14:15:35.929Z,13.87
2019-04-14T14:18:22.668Z,20.37
2019-04-14T14:21:06.087Z,10.13
2019-04-14T14:23:39.828Z,13.60
2019-04-14T14:26:13.847Z,14.80
2019-04-14T14:28:43.401Z,13.97
2019-04-14T14:31:12.883Z,20.80
2019-04-14T14:33:45.151Z,19.33
2019-04-14T14:36:13.526Z,19.43
2019-04-14T14:38:43.005Z,15.13
2019-04-14T14:41:14.156Z,20.97
2019-04-14T14:43:43.812Z,19.17
2019-04-14T14:46:21.346Z,19.47
2019-04-14T14:48:55.023Z,13.43
2019-04-14T14:51:31.676Z,16.77
2019-04-14T14:54:01.329Z,8.33
2019-04-14T14:56:30.888Z,19.80
2019-04-14T14:59:02.471Z,19.63
2019-04-14T15:01:31.890Z,22.57
2019-04-14T15:04:01.463Z,21.17
2019-04-14T15:06:31.160Z,22.10
2019-04-14T15:09:00.575Z,18.63
2019-04-14T15:11:31.639Z,6.70
2019-04-14T15:14:01.250Z,21.97
2019-04-14T15:16:30.819Z,13.67
2019-04-14T15:19:00.292Z,21.67
2019-04-14T15:21:29.860Z,23.30
2019-04-14T15:23:59.474Z,13.97
2019-04-14T15:26:30.547Z,9.37
2019-04-14T15:29:00.250Z,15.83
2019-04-14T15:31:29.962Z,25.47
2019-04-14T15:33:59.493Z,22.30
2019-04-14T15:36:29.024Z,22.70
2019-04-14T15:38:58.563Z,21.13
2019-04-14T15:41:27.973Z,23.03
2019-04-14T15:43:57.416Z,24.53
2019-04-14T15:46:27.069Z,20.63
2019-04-14T15:48:56.678Z,19.63
2019-04-14T15:51:26.105Z,24.07
2019-04-14T15:53:55.599Z,21.53
2019-04-14T15:56:29.363Z,21.83
2019-04-14T15:59:03.984Z,14.03
2019-04-14T16:01:43.963Z,11.73
2019-04-14T16:04:18.083Z,12.63
2019-04-14T16:06:49.239Z,15.67
2019-04-14T16:09:23.111Z,26.07
2019-04-14T16:12:05.827Z,24.67
2019-04-14T16:14:45.855Z,19.23
2019-04-14T16:17:32.227Z,22.90
2019-04-14T16:20:11.898Z,23.03
2019-04-14T16:22:41.446Z,20.13
2019-04-14T16:25:11.135Z,20.50
2019-04-14T16:27:48.255Z,25.43
2019-04-14T16:30:34.806Z,26.87
2019-04-14T16:33:06.065Z,22.53
2019-04-14T16:35:37.223Z,7.30
2019-04-14T16:38:06.992Z,21.00
2019-04-14T16:40:37.918Z,25.13
2019-04-14T16:43:07.436Z,12.80
2019-04-14T16:45:37.063Z,22.57
2019-04-14T16:48:06.672Z,27.03
2019-04-14T16:50:36.153Z,24.30
2019-04-14T16:53:07.244Z,20.07
2019-04-14T16:55:38.544Z,22.17
2019-04-14T16:58:21.910Z,21.47
2019-04-14T17:00:52.972Z,11.53
2019-04-14T17:03:22.430Z,24.23
2019-04-14T17:05:51.854Z,23.00
2019-04-14T17:08:21.328Z,17.97
2019-04-14T17:10:50.729Z,11.83
2019-04-14T17:13:20.208Z,20.30
2019-04-14T17:15:53.681Z,23.83
2019-04-14T17:18:27.465Z,23.87
2019-04-14T17:20:58.506Z,21.23
2019-04-14T17:23:35.778Z,22.53
2019-04-14T17:26:07.024Z,22.40
2019-04-14T17:28:43.982Z,22.73
2019-04-14T17:31:23.943Z,22.27
2019-04-14T17:33:57.879Z,14.57
2019-04-14T17:36:29.007Z,20.47
2019-04-14T17:39:02.814Z,20.80
2019-04-14T17:41:36.781Z,14.60
2019-04-14T17:44:08.057Z,21.30
2019-04-14T17:46:55.219Z,24.03
2019-04-14T17:49:28.686Z,23.57
2019-04-14T17:52:15.662Z,14.87
2019-04-14T17:54:46.738Z,17.37
2019-04-14T17:57:33.761Z,15.80
2019-04-14T18:00:22.551Z,19.80
2019-04-14T18:03:08.661Z,18.10
2019-04-14T18:05:42.596Z,10.50
2019-04-14T18:08:19.386Z,25.47
2019-04-14T18:10:59.537Z,19.20
2019-04-14T18:13:42.816Z,21.03
2019-04-14T18:16:29.829Z,21.83
2019-04-14T18:19:09.634Z,15.77
2019-04-14T18:21:39.101Z,18.27
2019-04-14T18:24:08.578Z,21.67
2019-04-14T18:26:37.971Z,17.80
2019-04-14T18:29:27.142Z,11.97
2019-04-14T18:32:14.534Z,18.20
2019-04-14T18:34:48.072Z,20.17
2019-04-14T18:37:34.232Z,18.53
2019-04-14T18:40:17.841Z,19.87
2019-04-14T18:43:08.557Z,11.33
2019-04-14T18:45:42.971Z,16.13
2019-04-14T18:48:22.834Z,21.57
2019-04-14T18:51:04.824Z,12.37
2019-04-14T18:53:51.108Z,16.67
2019-04-14T18:56:38.719Z,16.97
2019-04-14T18:59:22.067Z,15.90
2019-04-14T19:01:53.293Z,17.93
2019-04-14T19:04:22.682Z,17.57
2019-04-14T19:06:52.167Z,16.80
2019-04-14T19:09:21.866Z,15.60
2019-04-14T19:11:52.961Z,17.63
2019-04-14T19:14:24.095Z,11.43
2019-04-14T19:17:00.747Z,10.43
2019-04-14T19:19:32.044Z,18.33
2019-04-14T19:22:01.522Z,8.70
2019-04-14T19:24:30.968Z,14.30
2019-04-14T19:27:00.367Z,14.93
2019-04-14T19:29:29.860Z,13.73
2019-04-14T19:31:59.242Z,11.73
2019-04-14T19:34:28.676Z,9.87
2019-04-14T19:36:58.118Z,9.63
2019-04-14T19:39:27.535Z,15.23
2019-04-14T19:41:57.016Z,14.30
2019-04-14T19:44:26.533Z,12.30
2019-04-14T19:46:56.014Z,6.33
2019-04-14T19:49:25.470Z,6.00
2019-04-14T19:51:54.871Z,11.67
2019-04-14T19:54:24.359Z,10.37
2019-04-14T19:56:53.760Z,9.77
2019-04-14T19:59:23.174Z,10.70
2019-04-14T20:01:52.718Z,9.17
2019-04-14T20:04:22.135Z,9.67
2019-04-14T20:06:51.606Z,9.67
2019-04-14T20:09:21.093Z,8.67
2019-04-14T20:11:50.571Z,8.60
2019-04-14T20:14:19.972Z,5.10
2019-04-14T20:16:53.718Z,9.83
2019-04-14T20:19:36.856Z,12.00
2019-04-14T20:22:11.034Z,8.97
2019-04-14T20:24:42.047Z,9.07
2019-04-14T20:27:18.690Z,9.20
2019-04-14T20:30:07.737Z,9.97
2019-04-14T20:32:38.751Z,9.73
2019-04-14T20:35:09.689Z,12.10
2019-04-14T20:37:39.098Z,8.80
2019-04-14T20:40:09.285Z,10.33
2019-04-14T20:42:38.836Z,10.13
2019-04-14T20:45:10.572Z,11.57
2019-04-14T20:47:39.952Z,10.57
2019-04-14T20:50:09.685Z,9.93
2019-04-14T20:52:39.076Z,10.67
2019-04-14T20:55:09.143Z,9.70
2019-04-14T20:57:38.568Z,11.07
2019-04-14T21:00:20.631Z,10.97
2019-04-14T21:03:06.819Z,12.30
2019-04-14T21:05:43.449Z,12.47
2019-04-14T21:08:16.944Z,10.13
2019-04-14T21:10:47.964Z,11.57
2019-04-14T21:13:19.083Z,7.40
2019-04-14T21:15:53.059Z,10.50
2019-04-14T21:18:24.153Z,9.73
2019-04-14T21:20:55.204Z,10.37
2019-04-14T21:23:43.968Z,9.43
2019-04-14T21:26:17.705Z,10.67
2019-04-14T21:28:57.507Z,11.23
2019-04-14T21:31:28.561Z,10.43
2019-04-14T21:34:08.708Z,10.17
2019-04-14T21:36:45.526Z,10.40
2019-04-14T21:39:32.787Z,10.03
2019-04-14T21:42:02.178Z,10.77
2019-04-14T21:44:31.607Z,10.77
2019-04-14T21:47:01.007Z,9.53
2019-04-14T21:49:30.387Z,10.07
2019-04-14T21:52:07.217Z,9.50
2019-04-14T21:54:36.660Z,10.33
2019-04-14T21:57:13.752Z,9.17
2019-04-14T21:59:47.523Z,9.53
2019-04-14T22:02:34.651Z,11.73
2019-04-14T22:05:22.909Z,11.43
2019-04-14T22:08:09.740Z,9.27
2019-04-14T22:10:40.839Z,10.23
2019-04-14T22:13:10.286Z,10.93
2019-04-14T22:15:39.898Z,9.77
2019-04-14T22:18:09.283Z,11.60
2019-04-14T22:20:38.694Z,11.17
2019-04-14T22:23:09.857Z,12.87
2019-04-14T22:25:39.247Z,12.33
2019-04-14T22:28:08.777Z,13.43
2019-04-14T22:30:38.179Z,15.53
2019-04-14T22:33:07.658Z,14.50
2019-04-14T22:35:37.037Z,17.63
2019-04-14T22:38:06.582Z,16.40
2019-04-14T22:40:35.975Z,16.47
2019-04-14T22:43:06.056Z,13.83
2019-04-14T22:45:35.607Z,16.73
2019-04-14T22:48:05.065Z,15.90
2019-04-14T22:50:34.522Z,18.83
2019-04-14T22:53:03.930Z,18.50
2019-04-14T22:55:33.752Z,18.03
2019-04-14T22:58:03.219Z,17.83
2019-04-14T23:00:34.334Z,16.50
2019-04-14T23:03:05.375Z,14.67
2019-04-14T23:05:39.527Z,17.53
2019-04-14T23:08:10.646Z,19.40
2019-04-14T23:10:47.414Z,16.73
2019-04-14T23:13:18.459Z,15.87
2019-04-14T23:15:51.999Z,18.20
2019-04-14T23:18:29.449Z,22.20
2019-04-14T23:21:03.459Z,7.67
2019-04-14T23:23:49.601Z,20.57
2019-04-14T23:26:19.719Z,18.43
2019-04-14T23:28:49.110Z,18.43
2019-04-14T23:31:18.580Z,18.33
2019-04-14T23:33:47.984Z,20.50
2019-04-14T23:36:17.446Z,17.60
2019-04-14T23:38:46.829Z,19.20
2019-04-14T23:41:16.190Z,19.77
2019-04-14T23:43:45.593Z,15.77
2019-04-14T23:46:15.061Z,16.77
2019-04-14T23:48:44.655Z,22.73
2019-04-14T23:51:14.186Z,21.37
2019-04-14T23:53:43.559Z,21.57
2019-04-14T23:56:12.948Z,16.17
2019-04-14T23:58:42.422Z,20.47
